Faro, Canada
Current Conditions -  °F | °C
As of 12:00 AM on Tuesday 27 Jan 2015 (Local Time) from CYXY Reporting Station
Light Snow Light Snow  
Wind Chill: -23°   Ceiling: 2100
Heat Index: -9°   Visibility: 15mi
Dew Point: -17°   Wind: 6mph
Humidity: 71%   Direction: 350°N
Pressure: 29.92"   Gusts: NA
Location:  62.19°N, 133.37°W
Report Text: CYXY 270800Z 35005KT 15SM -SN OVC021 M23/M27 A2992 RMK SC8 SLP210
Loading
Personal Weather Stations






























Interactive Weather Map New forecast layout! Learn more

10-Day Weather Forecast

Advertisements
Track Severe Weather on mobile